createdAt,value
2022-12-23T00:02:14.790Z,6.65
2022-12-23T00:05:19.495Z,7.03
2022-12-23T00:08:25.017Z,7.10
2022-12-23T00:11:29.293Z,6.18
2022-12-23T00:14:50.335Z,6.97
2022-12-23T00:17:53.610Z,7.25
2022-12-23T00:21:04.808Z,7.32
2022-12-23T00:24:12.873Z,7.28
2022-12-23T00:27:17.188Z,7.75
2022-12-23T00:30:21.864Z,7.60
2022-12-23T00:33:27.194Z,7.30
2022-12-23T00:36:32.392Z,8.35
2022-12-23T00:39:55.212Z,8.40
2022-12-23T00:42:59.552Z,7.70
2022-12-23T00:46:03.048Z,7.78
2022-12-23T00:49:26.844Z,9.30
2022-12-23T00:52:30.184Z,8.07
2022-12-23T00:55:34.804Z,7.10
2022-12-23T00:58:38.041Z,7.60
2022-12-23T01:01:58.802Z,8.77
2022-12-23T01:05:19.634Z,8.57
2022-12-23T01:08:22.860Z,9.27
2022-12-23T01:11:27.831Z,9.15
2022-12-23T01:14:31.456Z,9.95
2022-12-23T01:17:34.945Z,8.77
2022-12-23T01:20:39.115Z,9.32
2022-12-23T01:23:43.461Z,8.52
2022-12-23T01:26:48.566Z,7.07
2022-12-23T01:29:52.165Z,7.90
2022-12-23T01:32:55.565Z,7.20
2022-12-23T01:36:02.792Z,9.02
2022-12-23T01:39:06.178Z,10.17
2022-12-23T01:42:31.557Z,9.13
2022-12-23T01:45:35.014Z,9.05
2022-12-23T01:48:39.534Z,7.90
2022-12-23T01:51:43.136Z,8.98
2022-12-23T01:54:47.428Z,7.60
2022-12-23T01:57:54.707Z,8.80
2022-12-23T02:01:16.486Z,10.23
2022-12-23T02:04:23.619Z,9.63
2022-12-23T02:07:47.905Z,10.43
2022-12-23T02:11:08.994Z,11.90
2022-12-23T02:14:48.984Z,13.98
2022-12-23T02:18:04.562Z,13.60
2022-12-23T02:21:33.250Z,14.20
2022-12-23T02:25:13.659Z,13.98
2022-12-23T02:28:50.329Z,13.13
2022-12-23T02:32:01.924Z,19.45
2022-12-23T02:35:13.401Z,18.80
2022-12-23T02:38:24.825Z,14.63
2022-12-23T02:41:35.572Z,11.45
2022-12-23T02:44:46.884Z,12.32
2022-12-23T02:47:55.906Z,18.83
2022-12-23T02:51:01.335Z,15.75
2022-12-23T02:54:08.977Z,16.77
2022-12-23T02:57:14.854Z,14.75
2022-12-23T03:00:19.591Z,13.07
2022-12-23T03:03:25.274Z,13.45
2022-12-23T03:06:32.933Z,10.95
2022-12-23T03:09:48.102Z,11.43
2022-12-23T03:12:59.237Z,13.52
2022-12-23T03:16:13.570Z,14.70
2022-12-23T03:19:26.764Z,12.95
2022-12-23T03:22:36.327Z,14.43
2022-12-23T03:25:47.647Z,12.35
2022-12-23T03:28:55.477Z,11.98
2022-12-23T03:32:04.655Z,15.75
2022-12-23T03:35:15.274Z,12.88
2022-12-23T03:38:20.556Z,12.23
2022-12-23T03:41:30.803Z,13.40
2022-12-23T03:44:38.488Z,9.80
2022-12-23T03:47:46.663Z,12.20
2022-12-23T03:50:56.219Z,13.05
2022-12-23T03:54:02.674Z,13.05
2022-12-23T03:57:08.538Z,14.10
2022-12-23T04:00:13.229Z,13.55
2022-12-23T04:03:30.531Z,19.33
2022-12-23T04:06:42.137Z,15.77
2022-12-23T04:09:48.850Z,17.38
2022-12-23T04:12:52.928Z,20.20
2022-12-23T04:15:58.438Z,17.48
2022-12-23T04:19:01.848Z,16.13
2022-12-23T04:22:09.750Z,14.27
2022-12-23T04:25:14.048Z,15.50
2022-12-23T04:28:18.180Z,12.98
2022-12-23T04:34:42.159Z,16.80
2022-12-23T04:37:50.169Z,13.45
2022-12-23T04:40:54.664Z,13.38
2022-12-23T04:43:57.890Z,13.38
2022-12-23T04:47:01.190Z,18.67
2022-12-23T04:50:07.018Z,14.10
2022-12-23T04:53:10.353Z,13.82
2022-12-23T04:56:13.609Z,11.70
2022-12-23T04:59:17.868Z,15.05
2022-12-23T05:02:21.169Z,10.10
2022-12-23T05:05:26.052Z,11.43
2022-12-23T05:08:30.848Z,9.10
2022-12-23T05:11:40.139Z,9.40
2022-12-23T05:14:47.655Z,10.13
2022-12-23T05:17:51.199Z,8.93
2022-12-23T05:20:55.945Z,12.52
2022-12-23T05:24:00.618Z,9.43
2022-12-23T05:27:04.051Z,11.70
2022-12-23T05:30:09.219Z,10.02
2022-12-23T05:33:12.551Z,8.65
2022-12-23T05:36:19.328Z,10.55
2022-12-23T05:39:22.622Z,8.25
2022-12-23T05:42:25.866Z,9.50
2022-12-23T05:45:29.255Z,10.77
2022-12-23T05:48:32.729Z,13.20
2022-12-23T05:51:37.567Z,10.18
2022-12-23T05:54:41.019Z,10.38
2022-12-23T05:57:44.297Z,9.52
2022-12-23T06:00:49.618Z,8.65
2022-12-23T06:03:53.191Z,8.88
2022-12-23T06:06:58.048Z,9.13
2022-12-23T06:10:01.372Z,8.02
2022-12-23T06:13:04.747Z,7.43
2022-12-23T06:16:08.453Z,5.63
2022-12-23T06:19:15.104Z,4.82
2022-12-23T06:22:21.725Z,3.55
2022-12-23T06:25:25.216Z,3.28
2022-12-23T06:28:48.994Z,3.63
2022-12-23T06:32:13.328Z,2.88
2022-12-23T06:35:36.487Z,2.45
2022-12-23T06:39:00.964Z,2.30
2022-12-23T06:42:04.402Z,3.10
2022-12-23T06:45:11.484Z,2.28
2022-12-23T06:48:16.082Z,2.92
2022-12-23T06:51:19.350Z,2.97
2022-12-23T06:54:23.979Z,2.45
2022-12-23T06:57:27.254Z,2.28
2022-12-23T07:00:30.952Z,2.20
2022-12-23T07:03:34.300Z,2.00
2022-12-23T07:06:39.780Z,1.65
2022-12-23T07:09:44.659Z,1.90
2022-12-23T07:12:51.002Z,1.75
2022-12-23T07:19:01.030Z,1.67
2022-12-23T07:22:04.755Z,1.70
2022-12-23T07:25:29.303Z,1.33
2022-12-23T07:28:52.374Z,1.70
2022-12-23T07:32:15.608Z,1.35
2022-12-23T07:35:38.833Z,1.30
2022-12-23T07:39:01.940Z,1.70
2022-12-23T07:42:42.818Z,1.60
2022-12-23T07:45:31.198Z,1.90
2022-12-23T07:48:34.553Z,2.55
2022-12-23T07:51:37.905Z,2.25
2022-12-23T07:54:41.217Z,3.63
2022-12-23T07:57:48.917Z,2.92
2022-12-23T08:00:52.513Z,4.60
2022-12-23T08:03:56.897Z,3.05
2022-12-23T08:07:00.361Z,4.05
2022-12-23T08:10:03.671Z,3.60
2022-12-23T08:13:08.345Z,3.30
2022-12-23T08:16:13.113Z,3.65
2022-12-23T08:19:18.572Z,2.85
2022-12-23T08:22:22.236Z,3.88
2022-12-23T08:25:25.510Z,6.30
2022-12-23T08:28:32.324Z,8.95
2022-12-23T08:31:35.995Z,8.20
2022-12-23T08:34:39.480Z,5.45
2022-12-23T08:37:42.979Z,9.40
2022-12-23T08:40:49.070Z,11.45
2022-12-23T08:43:54.492Z,6.50
2022-12-23T08:47:14.239Z,5.43
2022-12-23T08:50:18.378Z,5.35
2022-12-23T08:53:21.929Z,4.88
2022-12-23T08:56:27.006Z,3.67
2022-12-23T08:59:32.064Z,5.13
2022-12-23T09:02:35.838Z,4.82
2022-12-23T09:05:43.159Z,5.13
2022-12-23T09:08:49.984Z,4.53
2022-12-23T09:11:53.282Z,4.70
2022-12-23T09:14:57.967Z,4.15
2022-12-23T09:18:01.663Z,3.92
2022-12-23T09:21:06.765Z,4.63
2022-12-23T09:24:10.153Z,5.10
2022-12-23T09:27:13.462Z,5.88
2022-12-23T09:30:20.330Z,5.97
2022-12-23T09:33:23.678Z,5.95
2022-12-23T09:36:27.264Z,7.30
2022-12-23T09:39:31.076Z,8.88
2022-12-23T09:42:50.840Z,11.93
2022-12-23T09:46:15.533Z,9.32
2022-12-23T09:49:20.641Z,9.95
2022-12-23T09:52:32.247Z,11.82
2022-12-23T09:55:51.001Z,12.90
2022-12-23T09:59:04.313Z,10.52
2022-12-23T10:02:20.247Z,11.65
2022-12-23T10:05:32.084Z,12.65
2022-12-23T10:08:39.460Z,13.07
2022-12-23T10:11:49.675Z,12.13
2022-12-23T10:14:56.664Z,11.88
2022-12-23T10:18:04.926Z,10.93
2022-12-23T10:21:15.885Z,11.70
2022-12-23T10:24:24.160Z,13.13
2022-12-23T10:27:32.566Z,12.27
2022-12-23T10:34:48.817Z,15.20
2022-12-23T10:38:01.324Z,13.77
2022-12-23T10:41:13.844Z,17.08
2022-12-23T10:44:41.432Z,14.48
2022-12-23T10:47:56.131Z,14.10
2022-12-23T10:51:06.223Z,12.80
2022-12-23T10:54:16.462Z,14.73
2022-12-23T10:57:21.032Z,9.98
2022-12-23T11:00:26.120Z,12.60
2022-12-23T11:03:32.702Z,10.90
2022-12-23T11:06:42.407Z,10.30
2022-12-23T11:09:49.170Z,8.85
2022-12-23T11:12:57.171Z,9.52
2022-12-23T11:16:15.302Z,7.75
2022-12-23T11:19:20.718Z,7.70
2022-12-23T11:22:26.445Z,16.33
2022-12-23T11:25:35.698Z,9.65
2022-12-23T11:28:49.325Z,8.13
2022-12-23T11:31:56.675Z,8.52
2022-12-23T11:35:00.051Z,13.30
2022-12-23T11:38:15.078Z,15.13
2022-12-23T11:41:23.530Z,7.35
2022-12-23T11:44:30.793Z,6.68
2022-12-23T11:47:38.890Z,6.77
2022-12-23T11:50:43.446Z,7.47
2022-12-23T11:53:59.777Z,6.85
2022-12-23T11:57:06.919Z,12.52
2022-12-23T12:00:22.461Z,8.98
2022-12-23T12:06:36.221Z,9.18
2022-12-23T12:09:45.986Z,9.63
2022-12-23T12:12:54.807Z,9.77
2022-12-23T12:16:09.973Z,9.80
2022-12-23T12:19:21.840Z,10.45
2022-12-23T12:22:34.475Z,8.65
2022-12-23T12:25:44.598Z,8.57
2022-12-23T12:28:55.056Z,11.77
2022-12-23T12:32:00.377Z,9.73
2022-12-23T12:35:14.259Z,7.68
2022-12-23T12:38:24.234Z,8.50
2022-12-23T12:44:44.594Z,7.30
2022-12-23T12:48:13.030Z,8.25
2022-12-23T12:51:28.724Z,7.43
2022-12-23T12:54:40.481Z,10.15
2022-12-23T12:57:49.949Z,6.82
2022-12-23T13:01:05.047Z,7.38
2022-12-23T13:04:29.464Z,8.85
2022-12-23T13:07:44.718Z,8.82
2022-12-23T13:10:58.020Z,11.30
2022-12-23T13:14:11.155Z,7.85
2022-12-23T13:17:21.878Z,8.10
2022-12-23T13:20:34.878Z,12.07
2022-12-23T13:23:45.705Z,14.27
2022-12-23T13:27:00.588Z,17.40
2022-12-23T13:30:12.205Z,11.93
2022-12-23T13:33:25.924Z,12.10
2022-12-23T13:36:47.390Z,12.27
2022-12-23T13:39:58.766Z,12.50
2022-12-23T13:43:07.462Z,12.05
2022-12-23T13:46:18.623Z,13.57
2022-12-23T13:49:30.859Z,14.10
2022-12-23T13:52:49.616Z,14.57
2022-12-23T13:56:03.001Z,15.38
2022-12-23T13:59:11.143Z,11.93
2022-12-23T14:02:44.152Z,15.20
2022-12-23T14:05:50.640Z,18.90
2022-12-23T14:08:55.966Z,17.48
2022-12-23T14:12:12.544Z,16.00
2022-12-23T14:15:54.560Z,13.23
2022-12-23T14:19:15.396Z,16.92
2022-12-23T14:22:37.319Z,15.20
2022-12-23T14:26:02.468Z,14.35
2022-12-23T14:29:31.343Z,13.23
2022-12-23T14:32:43.794Z,27.90
2022-12-23T14:35:57.394Z,15.52
2022-12-23T14:39:29.974Z,14.60
2022-12-23T14:42:40.853Z,17.63
2022-12-23T14:45:45.095Z,18.92
2022-12-23T14:49:38.832Z,34.30
2022-12-23T14:53:01.333Z,18.20
2022-12-23T14:56:23.461Z,20.17
2022-12-23T14:59:37.168Z,22.00
2022-12-23T15:02:42.002Z,39.00
2022-12-23T15:05:48.119Z,31.35
2022-12-23T15:08:55.811Z,23.35
2022-12-23T15:12:01.547Z,20.48
2022-12-23T15:15:07.075Z,26.88
2022-12-23T15:18:13.855Z,27.45
2022-12-23T15:21:19.219Z,23.67
2022-12-23T15:24:24.027Z,25.83
2022-12-23T15:27:30.332Z,26.77
2022-12-23T15:30:37.395Z,28.02
2022-12-23T15:37:04.993Z,27.70
2022-12-23T15:40:31.543Z,26.05
2022-12-23T15:43:58.797Z,23.52
2022-12-23T15:47:29.214Z,31.20
2022-12-23T15:50:55.926Z,29.15
2022-12-23T15:54:24.057Z,18.70
2022-12-23T15:57:30.635Z,19.83
2022-12-23T16:00:40.907Z,20.40
2022-12-23T16:03:52.510Z,17.60
2022-12-23T16:06:57.365Z,17.58
2022-12-23T16:10:03.815Z,16.15
2022-12-23T16:13:18.142Z,15.68
2022-12-23T16:16:34.659Z,18.58
2022-12-23T16:19:39.964Z,15.48
2022-12-23T16:22:45.204Z,17.58
2022-12-23T16:25:54.228Z,17.63
2022-12-23T16:29:01.936Z,20.27
2022-12-23T16:34:39.150Z,17.30
2022-12-23T16:37:47.540Z,20.10
2022-12-23T16:40:56.020Z,13.48
2022-12-23T16:43:59.776Z,15.95
2022-12-23T16:47:08.051Z,11.45
2022-12-23T16:50:16.038Z,10.45
2022-12-23T16:53:20.221Z,8.85
2022-12-23T16:56:25.443Z,11.00
2022-12-23T16:59:28.719Z,12.48
2022-12-23T17:02:34.507Z,9.55
2022-12-23T17:05:41.815Z,14.20
2022-12-23T17:08:45.282Z,10.07
2022-12-23T17:11:53.864Z,14.27
2022-12-23T17:14:57.252Z,9.93
2022-12-23T17:18:00.872Z,7.60
2022-12-23T17:21:05.716Z,8.95
2022-12-23T17:24:13.321Z,9.00
2022-12-23T17:27:20.584Z,5.05
2022-12-23T17:30:26.157Z,4.67
2022-12-23T17:33:32.566Z,6.05
2022-12-23T17:36:44.431Z,3.40
2022-12-23T17:40:17.151Z,4.75
2022-12-23T17:43:20.390Z,6.03
2022-12-23T17:46:24.625Z,4.80
2022-12-23T17:49:28.397Z,5.38
2022-12-23T17:52:33.060Z,7.72
2022-12-23T17:55:36.418Z,5.22
2022-12-23T17:58:43.865Z,5.28
2022-12-23T18:01:47.230Z,2.92
2022-12-23T18:04:51.142Z,1.77
2022-12-23T18:07:59.528Z,2.40
2022-12-23T18:11:03.097Z,2.90
2022-12-23T18:14:06.699Z,2.80
2022-12-23T18:17:15.365Z,2.75
2022-12-23T18:20:23.637Z,2.70
2022-12-23T18:23:30.595Z,2.58
2022-12-23T18:26:33.859Z,1.70
2022-12-23T18:29:37.077Z,2.20
2022-12-23T18:32:42.273Z,2.17
2022-12-23T18:35:47.350Z,3.20
2022-12-23T18:38:52.960Z,1.45
2022-12-23T18:41:56.427Z,1.17
2022-12-23T18:45:00.583Z,1.70
2022-12-23T18:48:05.942Z,1.70
2022-12-23T18:51:14.517Z,5.20
2022-12-23T18:54:21.421Z,4.32
2022-12-23T18:57:24.830Z,1.40
2022-12-23T19:00:33.580Z,1.48
2022-12-23T19:03:36.902Z,6.20
2022-12-23T19:06:40.205Z,2.75
2022-12-23T19:09:44.932Z,2.20
2022-12-23T19:12:51.218Z,4.70
2022-12-23T19:15:54.574Z,7.70
2022-12-23T19:18:57.975Z,4.75
2022-12-23T19:22:01.417Z,2.30
2022-12-23T19:25:08.498Z,2.40
2022-12-23T19:28:12.777Z,2.20
2022-12-23T19:31:18.103Z,1.73
2022-12-23T19:34:21.533Z,3.30
2022-12-23T19:37:24.957Z,1.30
2022-12-23T19:40:29.588Z,2.47
2022-12-23T19:43:32.916Z,2.92
2022-12-23T19:46:36.348Z,1.70
2022-12-23T19:49:39.780Z,2.72
2022-12-23T19:52:43.223Z,4.03
2022-12-23T19:55:59.044Z,1.10
2022-12-23T19:59:03.539Z,2.22
2022-12-23T20:02:07.621Z,3.78
2022-12-23T20:05:10.882Z,4.93
2022-12-23T20:08:14.389Z,1.80
2022-12-23T20:11:21.327Z,1.58
2022-12-23T20:14:29.059Z,2.10
2022-12-23T20:17:35.563Z,1.70
2022-12-23T20:20:38.840Z,1.40
2022-12-23T20:23:42.223Z,2.20
2022-12-23T20:26:47.194Z,1.73
2022-12-23T20:29:51.166Z,2.83
2022-12-23T20:32:55.482Z,2.22
2022-12-23T20:35:58.920Z,2.08
2022-12-23T20:39:03.589Z,1.33
2022-12-23T20:42:09.908Z,1.55
2022-12-23T20:45:13.515Z,1.40
2022-12-23T20:48:18.280Z,1.80
2022-12-23T20:51:24.048Z,2.17
2022-12-23T20:54:33.084Z,1.52
2022-12-23T20:57:38.731Z,2.50
2022-12-23T21:00:42.119Z,2.45
2022-12-23T21:03:47.209Z,2.30
2022-12-23T21:06:51.660Z,1.25
2022-12-23T21:09:55.358Z,1.60
2022-12-23T21:13:01.844Z,1.75
2022-12-23T21:16:07.082Z,2.13
2022-12-23T21:19:15.785Z,1.85
2022-12-23T21:22:20.139Z,1.73
2022-12-23T21:25:23.371Z,1.58
2022-12-23T21:28:28.000Z,1.77
2022-12-23T21:31:32.649Z,1.20
2022-12-23T21:34:37.403Z,1.70
2022-12-23T21:37:40.858Z,2.40
2022-12-23T21:40:44.149Z,3.13
2022-12-23T21:43:49.392Z,1.70
2022-12-23T21:46:52.934Z,1.10
2022-12-23T21:49:56.156Z,1.05
2022-12-23T21:52:59.440Z,1.40
2022-12-23T21:56:04.200Z,1.42
2022-12-23T21:59:12.631Z,1.23
2022-12-23T22:02:17.084Z,1.30
2022-12-23T22:05:21.722Z,1.25
2022-12-23T22:08:27.942Z,1.10
2022-12-23T22:11:33.347Z,1.13
2022-12-23T22:14:39.434Z,1.02
2022-12-23T22:17:42.835Z,0.95
2022-12-23T22:20:46.618Z,1.10
2022-12-23T22:23:51.713Z,1.20
2022-12-23T22:26:55.427Z,1.02
2022-12-23T22:30:00.217Z,1.10
2022-12-23T22:34:38.917Z,1.50
2022-12-23T22:37:42.201Z,1.38
2022-12-23T22:40:49.541Z,1.20
2022-12-23T22:43:52.780Z,1.48
2022-12-23T22:46:56.668Z,1.55
2022-12-23T22:50:01.359Z,1.67
2022-12-23T22:53:04.955Z,1.50
2022-12-23T22:56:09.387Z,1.63
2022-12-23T22:59:21.035Z,2.08
2022-12-23T23:02:24.729Z,1.38
2022-12-23T23:05:31.301Z,1.63
2022-12-23T23:08:35.964Z,1.52
2022-12-23T23:11:39.310Z,1.23
2022-12-23T23:14:54.948Z,1.17
2022-12-23T23:17:58.390Z,1.50
2022-12-23T23:21:03.125Z,1.52
2022-12-23T23:24:07.531Z,1.95
2022-12-23T23:27:12.161Z,1.52
2022-12-23T23:30:15.928Z,1.40
2022-12-23T23:33:19.824Z,1.85
2022-12-23T23:36:24.541Z,1.58
2022-12-23T23:39:27.781Z,1.80
2022-12-23T23:42:30.980Z,1.88
2022-12-23T23:45:34.602Z,1.42
2022-12-23T23:48:37.823Z,1.40
2022-12-23T23:51:42.836Z,1.70
2022-12-23T23:54:46.049Z,2.20
2022-12-23T23:57:52.181Z,2.00
